Time;durP1;ratioP1;P1;durP2;ratioP2;P2;SDS_P1;SDS_P2;PMS_P1;PMS_P2;Temp;Humidity;BMP_temperature;BMP_pressure;BME280_temperature;BME280_humidity;BME280_pressure;Samples;Min_cycle;Max_cycle;Signal;HPM_P1;HPM_P2
2021/07/06 00:00:05;;;;;;;3.33;1.60;;;;;;;;;;10410086;28;20252;-75
2021/07/06 00:05:10;;;;;;;4.00;1.67;;;;;;;;;;10416072;28;20210;-74
2021/07/06 00:10:13;;;;;;;3.17;1.70;;;;;;;;;;10413553;28;20193;-74
2021/07/06 00:15:19;;;;;;;3.33;1.60;;;;;;;;;;10411381;28;20208;-74
2021/07/06 00:20:25;;;;;;;4.83;1.60;;;;;;;;;;10406418;28;20198;-74
2021/07/06 00:25:27;;;;;;;3.10;1.70;;;;;;;;;;10405971;28;20209;-75
2021/07/06 00:30:30;;;;;;;3.93;1.80;;;;;;;;;;10411021;28;20251;-74
2021/07/06 00:35:34;;;;;;;3.87;2.00;;;;;;;;;;10400221;28;20213;-72
2021/07/06 00:40:37;;;;;;;2.93;1.57;;;;;;;;;;10407598;28;20198;-73
2021/07/06 00:45:39;;;;;;;2.30;1.50;;;;;;;;;;10412548;28;20222;-72
2021/07/06 00:50:43;;;;;;;3.43;1.57;;;;;;;;;;10409051;28;20222;-73
2021/07/06 00:55:47;;;;;;;2.90;1.60;;;;;;;;;;10407000;28;20186;-73
2021/07/06 01:00:50;;;;;;;4.17;1.40;;;;;;;;;;10413781;28;20717;-73
2021/07/06 01:05:54;;;;;;;2.17;1.47;;;;;;;;;;10408098;28;20218;-73
2021/07/06 01:10:58;;;;;;;2.40;1.30;;;;;;;;;;10405450;28;20228;-72
2021/07/06 01:16:01;;;;;;;2.27;1.30;;;;;;;;;;10407475;28;20230;-73
2021/07/06 01:21:05;;;;;;;2.67;1.50;;;;;;;;;;10406111;28;20268;-73
2021/07/06 01:26:09;;;;;;;2.80;1.50;;;;;;;;;;10412483;28;20300;-73
2021/07/06 01:31:11;;;;;;;2.73;1.50;;;;;;;;;;10405549;28;20218;-73
2021/07/06 01:36:17;;;;;;;2.97;1.50;;;;;;;;;;10407018;28;20197;-74
2021/07/06 01:41:21;;;;;;;3.47;1.50;;;;;;;;;;10410528;28;20233;-74
2021/07/06 01:46:23;;;;;;;3.13;1.40;;;;;;;;;;10413149;28;20276;-73
2021/07/06 01:51:26;;;;;;;2.17;1.50;;;;;;;;;;10412393;28;20218;-72
2021/07/06 01:56:30;;;;;;;2.03;1.40;;;;;;;;;;10411230;28;20192;-73
2021/07/06 02:01:33;;;;;;;2.77;1.30;;;;;;;;;;10384689;28;20214;-73
2021/07/06 02:06:35;;;;;;;2.97;1.20;;;;;;;;;;10406600;28;20254;-73
2021/07/06 02:11:39;;;;;;;4.23;1.60;;;;;;;;;;10405802;28;20218;-73
2021/07/06 02:16:42;;;;;;;2.80;1.60;;;;;;;;;;10417726;28;20634;-72
2021/07/06 02:21:45;;;;;;;2.83;1.50;;;;;;;;;;10410921;28;20217;-73
2021/07/06 02:26:49;;;;;;;2.53;1.30;;;;;;;;;;10400547;28;20674;-73
2021/07/06 02:31:51;;;;;;;2.47;1.40;;;;;;;;;;10411343;28;20213;-73
2021/07/06 02:36:54;;;;;;;1.83;1.30;;;;;;;;;;10405963;28;20200;-73
2021/07/06 02:41:58;;;;;;;2.90;1.33;;;;;;;;;;10408522;28;20308;-73
2021/07/06 02:47:00;;;;;;;4.33;1.40;;;;;;;;;;10406890;28;20252;-74
2021/07/06 02:52:03;;;;;;;6.00;1.50;;;;;;;;;;10404526;28;20210;-75
2021/07/06 02:57:09;;;;;;;2.43;1.37;;;;;;;;;;10408674;28;20190;-73
2021/07/06 03:02:12;;;;;;;3.63;1.60;;;;;;;;;;10406544;28;20567;-73
2021/07/06 03:07:15;;;;;;;2.43;1.30;;;;;;;;;;10407428;28;20209;-73
2021/07/06 03:12:19;;;;;;;2.70;1.30;;;;;;;;;;10404881;28;20283;-73
2021/07/06 03:17:22;;;;;;;4.27;1.33;;;;;;;;;;10400557;28;20685;-73
2021/07/06 03:22:24;;;;;;;3.70;1.30;;;;;;;;;;10393236;28;20214;-73
2021/07/06 03:27:28;;;;;;;4.87;1.40;;;;;;;;;;10392872;28;20218;-72
2021/07/06 03:32:31;;;;;;;1.83;1.23;;;;;;;;;;10384518;28;20248;-73
2021/07/06 03:37:34;;;;;;;3.73;1.40;;;;;;;;;;10416174;28;20217;-73
2021/07/06 03:42:38;;;;;;;2.50;1.40;;;;;;;;;;10402933;28;20301;-73
2021/07/06 03:47:41;;;;;;;2.00;1.30;;;;;;;;;;10401073;28;20312;-73
2021/07/06 03:52:44;;;;;;;2.70;1.37;;;;;;;;;;10388683;28;20301;-73
2021/07/06 03:57:48;;;;;;;3.10;1.30;;;;;;;;;;10403161;28;20613;-74
2021/07/06 04:02:52;;;;;;;2.47;1.40;;;;;;;;;;10400923;28;20220;-73
2021/07/06 04:07:54;;;;;;;1.87;1.30;;;;;;;;;;10399541;28;20213;-72
2021/07/06 04:12:58;;;;;;;2.80;1.13;;;;;;;;;;10408974;28;20241;-72
2021/07/06 04:18:21;;;;;;;2.20;1.30;;;;;;;;;;10412962;28;20205;-72
2021/07/06 04:23:43;;;;;;;2.27;1.40;;;;;;;;;;10408430;28;20585;-73
2021/07/06 04:29:07;;;;;;;2.30;1.40;;;;;;;;;;10413546;28;20194;-73
2021/07/06 04:34:10;;;;;;;2.20;1.10;;;;;;;;;;10412152;28;20210;-73
2021/07/06 04:39:13;;;;;;;3.10;1.20;;;;;;;;;;10429075;28;20684;-73
2021/07/06 04:44:17;;;;;;;3.40;1.20;;;;;;;;;;10411227;28;20206;-74
2021/07/06 04:49:19;;;;;;;1.83;1.10;;;;;;;;;;10412791;28;20194;-73
2021/07/06 04:54:24;;;;;;;2.83;1.50;;;;;;;;;;10410769;28;20276;-73
2021/07/06 04:59:28;;;;;;;4.37;1.30;;;;;;;;;;10406599;28;20228;-73
2021/07/06 05:04:30;;;;;;;1.47;1.00;;;;;;;;;;10410351;28;20214;-72
2021/07/06 05:09:33;;;;;;;3.40;1.30;;;;;;;;;;10408189;28;20208;-73
2021/07/06 05:14:37;;;;;;;2.73;1.40;;;;;;;;;;10409639;28;20238;-73
2021/07/06 05:19:39;;;;;;;6.03;1.60;;;;;;;;;;10410367;28;20281;-73
2021/07/06 05:24:42;;;;;;;4.07;1.53;;;;;;;;;;10411158;28;20214;-73
2021/07/06 05:29:46;;;;;;;1.90;1.20;;;;;;;;;;10417695;28;20279;-74
2021/07/06 05:34:49;;;;;;;2.47;1.43;;;;;;;;;;10410276;28;20320;-74
2021/07/06 05:39:51;;;;;;;2.13;1.30;;;;;;;;;;10413957;28;20242;-74
2021/07/06 05:44:55;;;;;;;3.93;1.40;;;;;;;;;;10416638;28;20218;-75
2021/07/06 05:49:58;;;;;;;0.63;0.43;;;;;;;;;;10414703;28;20189;-74
2021/07/06 05:55:01;;;;;;;2.93;1.23;;;;;;;;;;10415635;28;20658;-74
2021/07/06 06:00:07;;;;;;;2.50;1.50;;;;;;;;;;10414484;28;20577;-75
2021/07/06 06:05:09;;;;;;;2.40;1.43;;;;;;;;;;10417694;28;20638;-74
2021/07/06 06:10:13;;;;;;;3.03;1.30;;;;;;;;;;10418264;28;20193;-73
2021/07/06 06:15:17;;;;;;;4.83;1.60;;;;;;;;;;10412373;28;20245;-74
2021/07/06 06:20:20;;;;;;;2.37;1.53;;;;;;;;;;10409463;28;20197;-74
2021/07/06 06:25:23;;;;;;;3.30;1.60;;;;;;;;;;10396121;28;20221;-75
2021/07/06 06:30:27;;;;;;;5.50;1.40;;;;;;;;;;10400940;28;20209;-74
2021/07/06 06:35:30;;;;;;;6.03;1.53;;;;;;;;;;10418232;28;20209;-74
2021/07/06 06:40:33;;;;;;;1.80;1.37;;;;;;;;;;10388054;28;20666;-74
2021/07/06 06:45:37;;;;;;;0.83;0.70;;;;;;;;;;10391590;28;20233;-73
2021/07/06 06:50:39;;;;;;;2.33;1.40;;;;;;;;;;10398931;28;20297;-74
2021/07/06 06:55:42;;;;;;;2.90;1.30;;;;;;;;;;10401232;28;20209;-74
2021/07/06 07:00:46;;;;;;;1.67;1.30;;;;;;;;;;10406051;28;20296;-74
2021/07/06 07:05:50;;;;;;;2.23;1.13;;;;;;;;;;10406528;28;20241;-74
2021/07/06 07:10:53;;;;;;;3.50;1.27;;;;;;;;;;10400424;28;20276;-73
2021/07/06 07:15:56;;;;;;;1.23;1.00;;;;;;;;;;10397725;28;20260;-74
2021/07/06 07:20:59;;;;;;;3.03;1.17;;;;;;;;;;10407326;28;20879;-74
2021/07/06 07:26:02;;;;;;;2.30;1.15;;;;;;;;;;10401109;28;20289;-74
2021/07/06 07:31:06;;;;;;;3.13;1.20;;;;;;;;;;10402900;28;20217;-74
2021/07/06 07:36:08;;;;;;;3.25;1.10;;;;;;;;;;10408456;28;20202;-73
2021/07/06 07:41:11;;;;;;;1.67;1.00;;;;;;;;;;10410753;28;20697;-73
2021/07/06 07:46:15;;;;;;;5.47;1.25;;;;;;;;;;10408992;28;20708;-74
2021/07/06 07:51:18;;;;;;;2.70;1.20;;;;;;;;;;10418833;28;20300;-73
2021/07/06 07:56:41;;;;;;;4.80;1.45;;;;;;;;;;10411872;28;20194;-75
2021/07/06 08:01:45;;;;;;;3.58;1.40;;;;;;;;;;10406911;28;20240;-74
2021/07/06 08:06:49;;;;;;;2.20;1.10;;;;;;;;;;10414968;28;20716;-74
2021/07/06 08:11:51;;;;;;;2.08;1.40;;;;;;;;;;10407225;28;20225;-75
2021/07/06 08:16:57;;;;;;;1.60;1.35;;;;;;;;;;10416074;28;20214;-76
2021/07/06 08:22:00;;;;;;;2.85;1.20;;;;;;;;;;10411000;28;20318;-74
2021/07/06 08:27:03;;;;;;;2.42;1.27;;;;;;;;;;10414326;28;20244;-74
2021/07/06 08:32:07;;;;;;;1.48;1.30;;;;;;;;;;10399540;28;20698;-72
2021/07/06 08:37:11;;;;;;;1.73;1.27;;;;;;;;;;10414380;28;20232;-72
2021/07/06 08:42:14;;;;;;;2.25;1.20;;;;;;;;;;10405520;28;20221;-72
2021/07/06 08:47:18;;;;;;;2.58;1.30;;;;;;;;;;10412673;28;20308;-72
2021/07/06 08:52:21;;;;;;;2.33;1.27;;;;;;;;;;10408264;28;20244;-72
2021/07/06 08:57:23;;;;;;;2.53;1.30;;;;;;;;;;10408448;28;20248;-73
2021/07/06 09:02:27;;;;;;;2.95;1.45;;;;;;;;;;10401622;28;20349;-73
2021/07/06 09:07:39;;;;;;;3.75;1.60;;;;;;;;;;10412341;28;20232;-72
2021/07/06 09:12:42;;;;;;;2.22;1.35;;;;;;;;;;10420035;28;20714;-73
2021/07/06 09:17:46;;;;;;;3.65;1.20;;;;;;;;;;10416404;28;20244;-73
2021/07/06 09:22:49;;;;;;;2.00;1.40;;;;;;;;;;10420293;28;20229;-73
2021/07/06 09:27:51;;;;;;;2.42;1.40;;;;;;;;;;10421054;28;20204;-74
2021/07/06 09:32:56;;;;;;;1.52;1.40;;;;;;;;;;10413070;28;20225;-74
2021/07/06 09:38:00;;;;;;;2.00;1.60;;;;;;;;;;10410950;28;20193;-74
2021/07/06 09:43:22;;;;;;;2.30;1.40;;;;;;;;;;10409703;28;20213;-73
2021/07/06 09:48:29;;;;;;;1.83;1.55;;;;;;;;;;10412192;28;20848;-73
2021/07/06 09:53:32;;;;;;;1.80;1.60;;;;;;;;;;10409562;28;20213;-74
2021/07/06 09:58:49;;;;;;;2.42;1.60;;;;;;;;;;10411765;28;20211;-74
2021/07/06 10:03:54;;;;;;;2.85;1.60;;;;;;;;;;10407758;28;20204;-73
2021/07/06 10:08:57;;;;;;;3.35;1.60;;;;;;;;;;10402381;28;20201;-72
2021/07/06 10:14:00;;;;;;;2.10;1.58;;;;;;;;;;10413080;28;20220;-73
2021/07/06 10:19:04;;;;;;;1.95;1.60;;;;;;;;;;10414324;28;20192;-74
2021/07/06 10:24:07;;;;;;;2.85;1.70;;;;;;;;;;10405531;28;20224;-71
2021/07/06 10:29:10;;;;;;;1.60;1.50;;;;;;;;;;10414340;28;20707;-73
2021/07/06 10:34:20;;;;;;;2.45;1.70;;;;;;;;;;10409776;28;20213;-72
2021/07/06 10:39:42;;;;;;;3.97;1.70;;;;;;;;;;10395315;28;20211;-72
2021/07/06 10:44:45;;;;;;;2.67;1.70;;;;;;;;;;10404998;28;20220;-77
2021/07/06 10:49:49;;;;;;;2.42;1.80;;;;;;;;;;10412859;28;20300;-72
2021/07/06 10:54:52;;;;;;;1.45;1.35;;;;;;;;;;10401275;28;20720;-73
2021/07/06 10:59:58;;;;;;;1.75;1.50;;;;;;;;;;10378337;28;20622;-72
2021/07/06 11:05:04;;;;;;;3.10;1.70;;;;;;;;;;10410770;28;20271;-73
2021/07/06 11:10:08;;;;;;;2.30;1.52;;;;;;;;;;10401671;28;20209;-72
2021/07/06 11:15:16;;;;;;;2.28;1.50;;;;;;;;;;10403348;28;20209;-73
2021/07/06 11:20:31;;;;;;;2.97;1.75;;;;;;;;;;10397422;28;20192;-72
2021/07/06 11:25:38;;;;;;;1.88;1.40;;;;;;;;;;10409547;28;20213;-73
2021/07/06 11:30:42;;;;;;;2.83;1.50;;;;;;;;;;10416242;28;20247;-73
2021/07/06 11:35:47;;;;;;;2.17;1.50;;;;;;;;;;10416097;28;20280;-73
2021/07/06 11:40:51;;;;;;;2.22;1.30;;;;;;;;;;10421699;28;20220;-73
2021/07/06 11:45:54;;;;;;;2.45;1.40;;;;;;;;;;10420131;28;20190;-77
2021/07/06 11:50:59;;;;;;;3.30;1.50;;;;;;;;;;10407706;28;20244;-71
2021/07/06 11:56:02;;;;;;;2.58;1.30;;;;;;;;;;10406347;28;20286;-72
2021/07/06 12:01:06;;;;;;;2.55;1.33;;;;;;;;;;10407208;28;20213;-72
2021/07/06 12:06:14;;;;;;;2.50;1.50;;;;;;;;;;10406680;28;20214;-72
2021/07/06 12:11:17;;;;;;;1.40;1.30;;;;;;;;;;10411355;28;20288;-72
2021/07/06 12:16:21;;;;;;;3.80;1.40;;;;;;;;;;10403954;28;20194;-73
2021/07/06 12:21:26;;;;;;;1.40;1.30;;;;;;;;;;10411126;28;20216;-73
2021/07/06 12:26:30;;;;;;;1.50;1.40;;;;;;;;;;10407017;28;20270;-73
2021/07/06 12:31:33;;;;;;;2.60;1.30;;;;;;;;;;10407670;28;20765;-72
2021/07/06 12:36:38;;;;;;;3.13;1.50;;;;;;;;;;10408584;28;20202;-72
2021/07/06 12:41:42;;;;;;;2.10;1.30;;;;;;;;;;10406678;28;20680;-72
2021/07/06 12:46:44;;;;;;;1.75;1.40;;;;;;;;;;10412179;28;20219;-72
2021/07/06 12:51:58;;;;;;;2.33;1.23;;;;;;;;;;10410156;28;20217;-72
2021/07/06 12:57:01;;;;;;;1.17;1.10;;;;;;;;;;10403101;28;20297;-72
2021/07/06 13:02:17;;;;;;;1.10;1.10;;;;;;;;;;10385055;28;20218;-72
2021/07/06 13:07:22;;;;;;;2.10;1.20;;;;;;;;;;10404578;28;20236;-72
2021/07/06 13:12:26;;;;;;;1.42;1.20;;;;;;;;;;10395260;28;20661;-72
2021/07/06 13:17:30;;;;;;;1.67;1.20;;;;;;;;;;10405735;28;20293;-73
2021/07/06 13:22:34;;;;;;;2.22;1.20;;;;;;;;;;10408131;28;20592;-72
2021/07/06 13:27:37;;;;;;;2.38;1.38;;;;;;;;;;10404383;28;20221;-73
2021/07/06 13:32:41;;;;;;;5.15;2.20;;;;;;;;;;10396557;28;20222;-72
2021/07/06 13:37:47;;;;;;;2.25;1.73;;;;;;;;;;10406550;28;20217;-72
2021/07/06 13:42:50;;;;;;;2.80;1.25;;;;;;;;;;10410073;28;20283;-73
2021/07/06 13:47:53;;;;;;;1.30;1.20;;;;;;;;;;10408347;28;20198;-73
2021/07/06 13:52:58;;;;;;;2.90;1.60;;;;;;;;;;10396928;28;20268;-73
2021/07/06 13:58:01;;;;;;;1.20;1.10;;;;;;;;;;10402285;28;20185;-72
2021/07/06 14:03:07;;;;;;;2.03;1.40;;;;;;;;;;10369166;28;20748;-73
2021/07/06 14:08:11;;;;;;;1.27;1.00;;;;;;;;;;10393568;28;20199;-72
2021/07/06 14:13:14;;;;;;;1.65;1.13;;;;;;;;;;10396130;28;20228;-73
2021/07/06 14:18:17;;;;;;;2.78;1.08;;;;;;;;;;10398805;28;20538;-72
2021/07/06 14:23:23;;;;;;;1.02;0.98;;;;;;;;;;10396860;28;20245;-72
2021/07/06 14:28:41;;;;;;;1.33;1.00;;;;;;;;;;10392331;28;20276;-72
2021/07/06 14:33:44;;;;;;;2.75;1.23;;;;;;;;;;10400017;28;20226;-72
2021/07/06 14:38:49;;;;;;;2.13;1.10;;;;;;;;;;10401792;28;20201;-72
2021/07/06 14:43:52;;;;;;;3.75;1.35;;;;;;;;;;10399641;28;20550;-72
2021/07/06 14:48:56;;;;;;;3.53;1.50;;;;;;;;;;10390179;28;20878;-73
2021/07/06 14:54:00;;;;;;;3.58;1.55;;;;;;;;;;10401454;28;20331;-73
2021/07/06 14:59:03;;;;;;;2.80;1.50;;;;;;;;;;10398757;28;20255;-73
2021/07/06 15:04:08;;;;;;;2.60;1.30;;;;;;;;;;10409546;28;20222;-72
2021/07/06 15:09:12;;;;;;;2.95;1.40;;;;;;;;;;10399366;28;20305;-73
2021/07/06 15:14:15;;;;;;;2.83;1.60;;;;;;;;;;10396777;28;20304;-72
2021/07/06 15:19:18;;;;;;;4.32;2.00;;;;;;;;;;10394236;28;20197;-73
2021/07/06 15:24:22;;;;;;;3.28;1.92;;;;;;;;;;10392227;28;20222;-72
2021/07/06 15:29:25;;;;;;;5.95;2.00;;;;;;;;;;10398622;28;20228;-72
2021/07/06 15:34:27;;;;;;;3.45;2.00;;;;;;;;;;10394451;28;20226;-72
2021/07/06 15:39:31;;;;;;;4.13;2.00;;;;;;;;;;10397555;28;20255;-72
2021/07/06 15:44:34;;;;;;;6.95;2.35;;;;;;;;;;10385917;28;20549;-73
2021/07/06 15:49:37;;;;;;;5.38;2.95;;;;;;;;;;10400603;28;20210;-72
2021/07/06 15:54:41;;;;;;;2.78;1.70;;;;;;;;;;10401550;28;20300;-72
2021/07/06 15:59:44;;;;;;;3.60;1.90;;;;;;;;;;10408339;28;20201;-73
2021/07/06 16:04:46;;;;;;;3.50;1.80;;;;;;;;;;10414709;28;21000;-71
2021/07/06 16:09:51;;;;;;;4.68;2.10;;;;;;;;;;10418966;28;20300;-72
2021/07/06 16:14:54;;;;;;;4.93;1.92;;;;;;;;;;10420403;28;20747;-72
2021/07/06 16:19:57;;;;;;;4.72;1.92;;;;;;;;;;10418892;28;20229;-74
2021/07/06 16:25:01;;;;;;;2.55;1.75;;;;;;;;;;10415872;28;20692;-73
2021/07/06 16:30:05;;;;;;;2.58;1.40;;;;;;;;;;10408702;28;20288;-73
2021/07/06 16:35:11;;;;;;;4.32;1.50;;;;;;;;;;10410548;28;20891;-74
2021/07/06 16:40:15;;;;;;;4.32;1.50;;;;;;;;;;10407904;28;20190;-73
2021/07/06 16:45:19;;;;;;;4.40;2.25;;;;;;;;;;10409207;28;20347;-73
2021/07/06 16:50:21;;;;;;;4.32;2.33;;;;;;;;;;10417677;28;20577;-73
2021/07/06 17:59:41;;;;;;;9.10;5.70;;;;;;;;;;10144240;29;20261;-71
2021/07/06 18:04:43;;;;;;;5.83;2.93;;;;;;;;;;10180822;29;20198;-72
2021/07/06 18:09:46;;;;;;;8.17;2.40;;;;;;;;;;10167339;29;20221;-71
2021/07/06 18:14:50;;;;;;;3.73;2.00;;;;;;;;;;10177418;29;20525;-71
2021/07/06 18:19:52;;;;;;;5.93;2.43;;;;;;;;;;10173042;29;20222;-71
2021/07/06 18:24:55;;;;;;;4.10;1.70;;;;;;;;;;10164090;29;20214;-72
2021/07/06 18:29:59;;;;;;;3.33;1.93;;;;;;;;;;10162565;29;20229;-73
2021/07/06 18:35:02;;;;;;;5.77;3.60;;;;;;;;;;10160452;29;20198;-73
2021/07/06 18:40:06;;;;;;;4.43;2.43;;;;;;;;;;10156682;29;20272;-71
2021/07/06 18:45:11;;;;;;;5.20;2.50;;;;;;;;;;10171415;29;20202;-73
2021/07/06 18:50:14;;;;;;;5.93;3.07;;;;;;;;;;10161337;29;20221;-74
2021/07/06 18:55:17;;;;;;;4.80;2.00;;;;;;;;;;10164057;29;20199;-72
2021/07/06 19:00:21;;;;;;;7.23;3.17;;;;;;;;;;10165711;29;20300;-71
2021/07/06 19:05:24;;;;;;;2.73;1.80;;;;;;;;;;10161599;29;20728;-72
2021/07/06 19:10:27;;;;;;;3.70;1.83;;;;;;;;;;10166393;29;20317;-71
2021/07/06 19:15:33;;;;;;;4.00;1.90;;;;;;;;;;10160284;29;20202;-72
2021/07/06 19:20:36;;;;;;;3.53;1.90;;;;;;;;;;10153668;29;20239;-72
2021/07/06 19:25:47;;;;;;;7.47;4.43;;;;;;;;;;10167805;29;20645;-72
2021/07/06 19:31:12;;;;;;;3.20;1.90;;;;;;;;;;10167815;29;20221;-72
2021/07/06 19:36:14;;;;;;;9.53;4.60;;;;;;;;;;10167075;29;20186;-71
2021/07/06 19:41:17;;;;;;;4.00;1.90;;;;;;;;;;10165062;29;20642;-71
2021/07/06 19:46:25;;;;;;;4.57;1.87;;;;;;;;;;10173393;29;20234;-71
2021/07/06 19:51:28;;;;;;;2.03;1.40;;;;;;;;;;10174963;29;20297;-68
2021/07/06 19:56:31;;;;;;;3.70;1.80;;;;;;;;;;10188403;29;20572;-70
2021/07/06 20:01:35;;;;;;;2.40;1.50;;;;;;;;;;10181935;29;20245;-70
2021/07/06 20:06:38;;;;;;;5.10;1.97;;;;;;;;;;10175746;29;20209;-71
2021/07/06 20:11:41;;;;;;;1.97;1.23;;;;;;;;;;10170014;29;20236;-71
2021/07/06 20:16:45;;;;;;;3.13;1.87;;;;;;;;;;10176175;29;20831;-71
2021/07/06 20:21:47;;;;;;;4.97;2.57;;;;;;;;;;10170471;29;20217;-68
2021/07/06 20:26:50;;;;;;;3.07;1.47;;;;;;;;;;10174064;29;20206;-71
2021/07/06 20:31:54;;;;;;;1.93;1.40;;;;;;;;;;10153742;29;20273;-73
2021/07/06 20:36:56;;;;;;;2.13;1.30;;;;;;;;;;10171430;29;20714;-72
2021/07/06 20:41:59;;;;;;;5.30;2.07;;;;;;;;;;10173318;29;20279;-71
2021/07/06 20:47:03;;;;;;;4.23;1.97;;;;;;;;;;10170455;29;20293;-71
2021/07/06 20:52:06;;;;;;;11.37;6.23;;;;;;;;;;10173018;29;20240;-72
2021/07/06 20:57:09;;;;;;;9.37;3.80;;;;;;;;;;10172651;29;20656;-71
2021/07/06 21:02:13;;;;;;;5.03;1.87;;;;;;;;;;10172136;29;20334;-71
2021/07/06 21:07:16;;;;;;;3.97;1.87;;;;;;;;;;10170155;29;20194;-72
2021/07/06 21:12:18;;;;;;;8.93;4.87;;;;;;;;;;10173943;29;20237;-72
2021/07/06 21:17:22;;;;;;;6.40;2.30;;;;;;;;;;10173714;29;20189;-72
2021/07/06 21:22:25;;;;;;;7.07;2.80;;;;;;;;;;10171326;29;20257;-71
2021/07/06 21:27:27;;;;;;;5.33;2.00;;;;;;;;;;10173232;29;20277;-72
2021/07/06 21:32:31;;;;;;;5.60;2.07;;;;;;;;;;10172628;29;20371;-71
2021/07/06 21:37:34;;;;;;;6.70;3.00;;;;;;;;;;10156429;29;20626;-74
2021/07/06 21:42:37;;;;;;;3.40;1.67;;;;;;;;;;10169017;29;20913;-72
2021/07/06 21:47:41;;;;;;;8.50;4.17;;;;;;;;;;10169551;29;20281;-72
2021/07/06 21:52:44;;;;;;;9.03;5.40;;;;;;;;;;10141795;29;22871;-72
2021/07/06 21:57:46;;;;;;;5.30;2.40;;;;;;;;;;10131340;29;20317;-73
2021/07/06 22:02:51;;;;;;;6.30;2.50;;;;;;;;;;10124574;29;20704;-72
2021/07/06 22:07:54;;;;;;;4.13;1.93;;;;;;;;;;10127297;29;20574;-72
2021/07/06 22:12:57;;;;;;;4.83;2.30;;;;;;;;;;10132157;29;20348;-72
2021/07/06 22:18:01;;;;;;;7.60;4.10;;;;;;;;;;10130175;29;20276;-73
2021/07/06 22:23:04;;;;;;;5.10;2.00;;;;;;;;;;10129142;29;20226;-72
2021/07/06 22:28:06;;;;;;;2.87;1.70;;;;;;;;;;10129096;29;20202;-72
2021/07/06 22:33:10;;;;;;;4.70;2.30;;;;;;;;;;10131313;29;20852;-72
2021/07/06 22:38:13;;;;;;;5.13;2.90;;;;;;;;;;10126657;29;20629;-72
2021/07/06 22:43:15;;;;;;;3.17;1.90;;;;;;;;;;10124841;29;20297;-74
2021/07/06 22:48:19;;;;;;;3.57;2.07;;;;;;;;;;10125807;29;20238;-73
2021/07/06 22:53:21;;;;;;;3.33;2.00;;;;;;;;;;10128008;29;20319;-72
2021/07/06 22:58:24;;;;;;;3.50;1.80;;;;;;;;;;10127331;29;20214;-72
2021/07/06 23:03:28;;;;;;;5.57;1.90;;;;;;;;;;10126486;29;20292;-72
2021/07/06 23:08:51;;;;;;;3.70;1.80;;;;;;;;;;10128062;29;20237;-71
2021/07/06 23:13:53;;;;;;;4.87;2.00;;;;;;;;;;10125546;29;20214;-73
2021/07/06 23:18:57;;;;;;;2.43;1.33;;;;;;;;;;10134632;29;20249;-72
2021/07/06 23:23:59;;;;;;;3.60;1.70;;;;;;;;;;10132961;29;22291;-73
2021/07/06 23:29:02;;;;;;;3.03;1.60;;;;;;;;;;10132934;29;20362;-72
2021/07/06 23:34:06;;;;;;;4.83;1.80;;;;;;;;;;10136043;29;20292;-72
2021/07/06 23:39:08;;;;;;;3.70;1.60;;;;;;;;;;10137214;29;20645;-73
2021/07/06 23:44:11;;;;;;;2.70;1.60;;;;;;;;;;10133811;29;20207;-72
2021/07/06 23:49:15;;;;;;;3.37;1.60;;;;;;;;;;10134352;29;21123;-72
2021/07/06 23:54:18;;;;;;;2.57;1.63;;;;;;;;;;10136223;29;20226;-73
2021/07/06 23:59:20;;;;;;;2.97;1.60;;;;;;;;;;10134001;29;20424;-72
